createdAt,value
2018-11-03T00:00:27.440Z,13.50
2018-11-03T00:02:55.029Z,13.50
2018-11-03T00:05:22.594Z,13.50
2018-11-03T00:07:50.205Z,13.50
2018-11-03T00:10:17.796Z,13.50
2018-11-03T00:12:45.417Z,13.50
2018-11-03T00:15:13.053Z,13.50
2018-11-03T00:17:40.616Z,13.50
2018-11-03T00:20:08.250Z,13.50
2018-11-03T00:22:35.836Z,13.40
2018-11-03T00:25:03.566Z,13.50
2018-11-03T00:27:31.186Z,13.50
2018-11-03T00:32:33.231Z,13.50
2018-11-03T00:35:00.830Z,13.50
2018-11-03T00:37:28.409Z,13.50
2018-11-03T00:39:55.977Z,13.50
2018-11-03T00:42:23.550Z,13.50
2018-11-03T00:44:51.175Z,13.40
2018-11-03T00:47:18.754Z,13.40
2018-11-03T00:49:46.396Z,13.40
2018-11-03T00:54:48.284Z,13.30
2018-11-03T00:57:15.879Z,13.30
2018-11-03T00:59:43.489Z,13.30
2018-11-03T01:02:11.062Z,13.30
2018-11-03T01:04:38.812Z,13.40
2018-11-03T01:07:06.426Z,13.30
2018-11-03T01:09:34.025Z,13.30
2018-11-03T01:12:01.633Z,13.30
2018-11-03T01:14:29.202Z,13.30
2018-11-03T01:16:56.770Z,13.30
2018-11-03T01:19:24.352Z,13.30
2018-11-03T01:21:51.946Z,13.30
2018-11-03T01:24:19.504Z,13.30
2018-11-03T01:26:47.102Z,13.30
2018-11-03T01:29:14.693Z,13.30
2018-11-03T01:31:42.389Z,13.30
2018-11-03T01:34:09.953Z,13.30
2018-11-03T01:36:37.572Z,13.30
2018-11-03T01:39:07.833Z,13.30
2018-11-03T01:41:35.462Z,13.30
2018-11-03T01:44:03.093Z,13.40
2018-11-03T01:46:30.724Z,13.40
2018-11-03T01:48:58.299Z,13.30
2018-11-03T01:51:26.031Z,13.30
2018-11-03T01:53:53.633Z,13.30
2018-11-03T01:56:21.195Z,13.30
2018-11-03T01:58:48.758Z,13.30
2018-11-03T02:01:16.349Z,13.30
2018-11-03T02:03:43.977Z,13.30
2018-11-03T02:06:11.531Z,13.30
2018-11-03T02:08:39.288Z,13.30
2018-11-03T02:11:06.827Z,13.30
2018-11-03T02:13:34.441Z,13.30
2018-11-03T02:16:02.030Z,13.20
2018-11-03T02:18:29.624Z,13.20
2018-11-03T02:20:57.195Z,13.20
2018-11-03T02:23:24.757Z,13.10
2018-11-03T02:25:52.371Z,13.20
2018-11-03T02:28:19.987Z,13.10
2018-11-03T02:30:47.542Z,13.10
2018-11-03T02:33:15.104Z,13.10
2018-11-03T02:35:42.687Z,13.10
2018-11-03T02:38:10.257Z,13.10
2018-11-03T02:40:37.865Z,13.10
2018-11-03T02:43:05.484Z,13.10
2018-11-03T02:45:33.083Z,13.10
2018-11-03T02:48:00.709Z,13.10
2018-11-03T02:50:28.273Z,13.20
2018-11-03T02:52:55.909Z,13.20
2018-11-03T02:55:23.437Z,13.20
2018-11-03T02:57:51.039Z,13.20
2018-11-03T03:00:18.677Z,13.20
2018-11-03T03:02:46.339Z,13.20
2018-11-03T03:05:13.944Z,13.20
2018-11-03T03:07:41.589Z,13.20
2018-11-03T03:10:10.660Z,13.20
2018-11-03T03:12:38.360Z,13.20
2018-11-03T03:15:07.083Z,13.20
2018-11-03T03:17:34.744Z,13.20
2018-11-03T03:20:02.337Z,13.20
2018-11-03T03:22:29.932Z,13.20
2018-11-03T03:24:57.540Z,13.30
2018-11-03T03:27:25.157Z,13.20
2018-11-03T03:29:52.777Z,13.30
2018-11-03T03:32:20.409Z,13.30
2018-11-03T03:34:48.006Z,13.30
2018-11-03T03:37:15.606Z,13.30
2018-11-03T03:39:43.191Z,13.40
2018-11-03T03:42:10.716Z,13.40
2018-11-03T03:44:38.350Z,13.40
2018-11-03T03:47:05.944Z,13.40
2018-11-03T03:49:33.540Z,13.40
2018-11-03T03:52:01.135Z,13.40
2018-11-03T03:54:28.707Z,13.40
2018-11-03T03:56:56.301Z,13.40
2018-11-03T03:59:23.876Z,13.40
2018-11-03T04:01:51.463Z,13.50
2018-11-03T04:04:19.082Z,13.50
2018-11-03T04:06:46.667Z,13.50
2018-11-03T04:09:14.237Z,13.50
2018-11-03T04:11:41.849Z,13.40
2018-11-03T04:14:09.439Z,13.50
2018-11-03T04:16:37.034Z,13.50
2018-11-03T04:19:04.828Z,13.50
2018-11-03T04:21:32.359Z,13.50
2018-11-03T04:23:59.910Z,13.50
2018-11-03T04:26:28.833Z,13.50
2018-11-03T04:28:56.895Z,13.50
2018-11-03T04:31:24.633Z,13.40
2018-11-03T04:33:52.181Z,13.40
2018-11-03T04:36:19.736Z,13.40
2018-11-03T04:38:47.281Z,13.50
2018-11-03T04:41:14.867Z,13.50
2018-11-03T04:43:42.484Z,13.50
2018-11-03T04:46:10.077Z,13.50
2018-11-03T04:48:38.195Z,13.50
2018-11-03T04:51:05.984Z,13.50
2018-11-03T04:53:33.540Z,13.50
2018-11-03T04:56:01.167Z,13.40
2018-11-03T04:58:28.761Z,13.40
2018-11-03T05:00:56.301Z,13.40
2018-11-03T05:03:23.898Z,13.50
2018-11-03T05:05:51.436Z,13.40
2018-11-03T05:08:18.985Z,13.50
2018-11-03T05:10:46.564Z,13.40
2018-11-03T05:13:14.080Z,13.40
2018-11-03T05:15:41.648Z,13.40
2018-11-03T05:18:09.232Z,13.50
2018-11-03T05:20:36.836Z,13.50
2018-11-03T05:23:04.821Z,13.50
2018-11-03T05:25:32.471Z,13.50
2018-11-03T05:28:00.095Z,13.50
2018-11-03T05:30:27.639Z,13.40
2018-11-03T05:32:55.150Z,13.40
2018-11-03T05:35:22.750Z,13.40
2018-11-03T05:37:50.381Z,13.50
2018-11-03T05:40:17.972Z,13.40
2018-11-03T05:42:45.513Z,13.40
2018-11-03T05:45:13.104Z,13.40
2018-11-03T05:47:40.722Z,13.40
2018-11-03T05:50:09.722Z,13.40
2018-11-03T05:52:37.344Z,13.40
2018-11-03T05:55:06.119Z,13.40
2018-11-03T05:57:33.728Z,13.40
2018-11-03T06:00:01.394Z,13.40
2018-11-03T06:02:28.964Z,13.40
2018-11-03T06:04:57.175Z,13.40
2018-11-03T06:07:25.210Z,13.40
2018-11-03T06:09:52.734Z,13.40
2018-11-03T06:12:20.308Z,13.40
2018-11-03T06:14:47.905Z,13.40
2018-11-03T06:17:15.430Z,13.40
2018-11-03T06:19:43.060Z,13.40
2018-11-03T06:22:10.701Z,13.40
2018-11-03T06:24:38.314Z,13.40
2018-11-03T06:27:05.986Z,13.40
2018-11-03T06:29:33.558Z,13.50
2018-11-03T06:32:01.151Z,13.40
2018-11-03T06:34:29.357Z,13.40
2018-11-03T06:36:56.955Z,13.40
2018-11-03T06:39:24.550Z,13.40
2018-11-03T06:41:52.178Z,13.40
2018-11-03T06:44:19.783Z,13.40
2018-11-03T06:46:47.570Z,13.40
2018-11-03T06:49:18.961Z,13.40
2018-11-03T06:51:46.589Z,13.40
2018-11-03T06:54:14.206Z,13.40
2018-11-03T06:56:41.753Z,13.40
2018-11-03T06:59:09.803Z,13.50
2018-11-03T07:01:37.430Z,13.50
2018-11-03T07:04:05.528Z,13.50
2018-11-03T07:06:33.857Z,13.50
2018-11-03T07:09:01.547Z,13.50
2018-11-03T07:11:29.189Z,13.60
2018-11-03T07:13:56.681Z,13.50
2018-11-03T07:16:24.306Z,13.60
2018-11-03T07:18:51.969Z,13.60
2018-11-03T07:21:19.625Z,13.70
2018-11-03T07:23:47.220Z,13.70
2018-11-03T07:26:14.791Z,13.70
2018-11-03T07:28:42.520Z,13.70
2018-11-03T07:31:10.114Z,13.80
2018-11-03T07:33:37.736Z,13.80
2018-11-03T07:36:05.376Z,13.90
2018-11-03T07:38:32.998Z,13.90
2018-11-03T07:41:00.628Z,13.80
2018-11-03T07:43:28.276Z,13.90
2018-11-03T07:45:55.882Z,13.90
2018-11-03T07:48:23.726Z,13.90
2018-11-03T07:50:51.258Z,14.00
2018-11-03T07:53:18.827Z,14.00
2018-11-03T07:55:46.400Z,14.10
2018-11-03T07:58:14.012Z,14.20
2018-11-03T08:00:41.807Z,14.20
2018-11-03T08:03:09.359Z,14.20
2018-11-03T08:05:36.985Z,14.10
2018-11-03T08:08:05.774Z,14.20
2018-11-03T08:10:35.071Z,14.30
2018-11-03T08:13:04.990Z,14.10
2018-11-03T08:15:32.621Z,14.00
2018-11-03T08:18:00.184Z,14.00
2018-11-03T08:20:27.871Z,14.00
2018-11-03T08:22:55.561Z,14.10
2018-11-03T08:25:23.134Z,14.20
2018-11-03T08:27:50.778Z,14.20
2018-11-03T08:30:18.422Z,14.30
2018-11-03T08:32:46.100Z,14.30
2018-11-03T08:35:13.739Z,14.40
2018-11-03T08:37:41.428Z,14.40
2018-11-03T08:40:10.728Z,14.50
2018-11-03T08:42:39.327Z,14.50
2018-11-03T08:45:07.495Z,14.50
2018-11-03T08:47:35.283Z,14.60
2018-11-03T08:50:03.063Z,14.50
2018-11-03T08:52:30.660Z,14.30
2018-11-03T08:54:58.250Z,14.40
2018-11-03T08:57:25.877Z,14.40
2018-11-03T08:59:53.684Z,14.40
2018-11-03T09:02:21.183Z,14.30
2018-11-03T09:04:48.885Z,14.20
2018-11-03T09:07:16.563Z,14.30
2018-11-03T09:09:44.271Z,14.30
2018-11-03T09:12:11.910Z,14.30
2018-11-03T09:14:39.612Z,14.40
2018-11-03T09:17:07.199Z,14.40
2018-11-03T09:19:34.823Z,14.40
2018-11-03T09:22:02.515Z,14.40
2018-11-03T09:24:30.131Z,14.60
2018-11-03T09:26:57.764Z,14.70
2018-11-03T09:29:25.364Z,14.70
2018-11-03T09:31:53.196Z,14.70
2018-11-03T09:34:20.836Z,14.80
2018-11-03T09:36:48.442Z,14.70
2018-11-03T09:39:16.289Z,14.60
2018-11-03T09:41:43.899Z,14.60
2018-11-03T09:44:11.558Z,14.70
2018-11-03T09:46:39.231Z,14.80
2018-11-03T09:49:07.849Z,14.90
2018-11-03T09:51:35.478Z,14.90
2018-11-03T09:54:03.114Z,15.10
2018-11-03T09:56:31.621Z,15.10
2018-11-03T09:58:59.158Z,15.00
2018-11-03T10:01:26.937Z,15.10
2018-11-03T10:03:54.601Z,15.10
2018-11-03T10:06:22.167Z,15.20
2018-11-03T10:08:49.863Z,15.20
2018-11-03T10:11:17.528Z,15.20
2018-11-03T10:13:45.186Z,15.10
2018-11-03T10:16:12.830Z,15.00
2018-11-03T10:18:40.519Z,15.10
2018-11-03T10:21:08.168Z,14.90
2018-11-03T10:23:35.799Z,14.90
2018-11-03T10:26:03.509Z,15.00
2018-11-03T10:28:31.246Z,15.10
2018-11-03T10:30:58.684Z,15.20
2018-11-03T10:33:26.342Z,15.30
2018-11-03T10:35:53.948Z,15.30
2018-11-03T10:38:21.570Z,15.30
2018-11-03T10:40:49.195Z,15.40
2018-11-03T10:43:16.909Z,15.40
2018-11-03T10:45:44.566Z,15.40
2018-11-03T10:48:12.152Z,15.50
2018-11-03T10:50:40.087Z,15.60
2018-11-03T10:53:07.788Z,15.60
2018-11-03T10:55:35.416Z,15.40
2018-11-03T10:58:03.836Z,15.40
2018-11-03T11:00:37.038Z,15.50
2018-11-03T11:03:10.132Z,15.50
2018-11-03T11:05:43.200Z,15.50
2018-11-03T11:08:16.479Z,15.50
2018-11-03T11:10:49.724Z,15.40
2018-11-03T11:13:19.554Z,15.30
2018-11-03T11:15:47.520Z,15.10
2018-11-03T11:18:15.228Z,15.00
2018-11-03T11:20:43.123Z,15.10
2018-11-03T11:23:10.754Z,15.00
2018-11-03T11:25:38.387Z,14.90
2018-11-03T11:28:06.164Z,14.90
2018-11-03T11:30:40.323Z,15.00
2018-11-03T11:33:09.716Z,15.00
2018-11-03T11:35:37.375Z,15.10
2018-11-03T11:38:05.847Z,15.20
2018-11-03T11:40:33.820Z,15.30
2018-11-03T11:43:01.433Z,15.40
2018-11-03T11:45:29.151Z,15.40
2018-11-03T11:47:56.758Z,15.30
2018-11-03T11:50:24.387Z,15.30
2018-11-03T11:52:52.066Z,15.40
2018-11-03T11:55:19.801Z,15.40
2018-11-03T11:57:47.954Z,15.40
2018-11-03T12:00:15.608Z,15.40
2018-11-03T12:02:43.231Z,15.40
2018-11-03T12:05:10.932Z,15.40
2018-11-03T12:07:38.645Z,15.30
2018-11-03T12:10:06.410Z,15.10
2018-11-03T12:12:34.029Z,15.20
2018-11-03T12:15:01.698Z,15.30
2018-11-03T12:17:29.387Z,15.40
2018-11-03T12:19:57.048Z,15.40
2018-11-03T12:22:24.772Z,15.40
2018-11-03T12:24:52.590Z,15.20
2018-11-03T12:27:20.268Z,15.30
2018-11-03T12:29:47.962Z,15.40
2018-11-03T12:32:16.367Z,15.40
2018-11-03T12:34:44.074Z,15.50
2018-11-03T12:37:11.701Z,15.40
2018-11-03T12:39:39.446Z,15.40
2018-11-03T12:42:07.164Z,15.60
2018-11-03T12:44:34.941Z,15.60
2018-11-03T12:47:02.655Z,15.70
2018-11-03T12:49:30.305Z,15.70
2018-11-03T12:51:57.974Z,15.70
2018-11-03T12:54:25.575Z,15.70
2018-11-03T12:56:53.212Z,15.70
2018-11-03T12:59:21.004Z,15.80
2018-11-03T13:01:48.712Z,15.90
2018-11-03T13:04:16.258Z,16.10
2018-11-03T13:06:43.916Z,16.10
2018-11-03T13:09:11.632Z,16.00
2018-11-03T13:11:39.650Z,15.80
2018-11-03T13:14:07.545Z,15.70
2018-11-03T13:16:35.168Z,15.70
2018-11-03T13:19:02.931Z,15.80
2018-11-03T13:21:30.612Z,16.10
2018-11-03T13:23:58.272Z,16.90
2018-11-03T13:26:25.939Z,17.40
2018-11-03T13:28:53.678Z,17.30
2018-11-03T13:31:21.318Z,17.00
2018-11-03T13:33:48.987Z,16.60
2018-11-03T13:36:16.607Z,16.30
2018-11-03T13:38:44.210Z,16.10
2018-11-03T13:41:11.933Z,15.80
2018-11-03T13:43:39.556Z,15.60
2018-11-03T13:46:07.284Z,15.40
2018-11-03T13:48:34.920Z,15.40
2018-11-03T13:51:02.636Z,15.30
2018-11-03T13:53:30.252Z,15.30
2018-11-03T13:55:57.962Z,15.10
2018-11-03T13:58:25.576Z,15.20
2018-11-03T14:00:53.287Z,15.10
2018-11-03T14:03:21.070Z,15.00
2018-11-03T14:05:48.740Z,14.90
2018-11-03T14:08:16.368Z,14.90
2018-11-03T14:10:43.956Z,14.90
2018-11-03T14:13:11.729Z,14.90
2018-11-03T14:15:39.403Z,15.00
2018-11-03T14:18:06.959Z,15.00
2018-11-03T14:20:34.623Z,14.90
2018-11-03T14:23:02.299Z,14.90
2018-11-03T14:25:29.904Z,14.90
2018-11-03T14:27:57.670Z,15.00
2018-11-03T14:30:25.316Z,15.00
2018-11-03T14:32:52.954Z,15.10
2018-11-03T14:35:20.561Z,15.10
2018-11-03T14:37:48.225Z,14.90
2018-11-03T14:40:16.537Z,14.90
2018-11-03T14:42:44.885Z,15.00
2018-11-03T14:45:13.387Z,15.00
2018-11-03T14:47:41.227Z,15.10
2018-11-03T14:50:09.196Z,15.10
2018-11-03T14:52:37.977Z,15.30
2018-11-03T14:55:07.072Z,15.30
2018-11-03T14:57:34.886Z,15.40
2018-11-03T15:00:03.298Z,15.40
2018-11-03T15:02:31.084Z,15.40
2018-11-03T15:04:58.773Z,15.40
2018-11-03T15:07:26.543Z,15.40
2018-11-03T15:09:54.257Z,15.40
2018-11-03T15:12:21.876Z,15.40
2018-11-03T15:14:49.541Z,15.40
2018-11-03T15:17:17.193Z,15.40
2018-11-03T15:19:44.931Z,15.40
2018-11-03T15:22:12.568Z,15.30
2018-11-03T15:24:40.205Z,15.30
2018-11-03T15:27:07.815Z,15.30
2018-11-03T15:29:35.485Z,15.30
2018-11-03T15:32:03.160Z,15.30
2018-11-03T15:34:30.801Z,15.30
2018-11-03T15:36:58.455Z,15.30
2018-11-03T15:39:26.049Z,15.30
2018-11-03T15:41:53.689Z,15.30
2018-11-03T15:44:21.400Z,15.30
2018-11-03T15:46:49.088Z,15.30
2018-11-03T15:49:16.719Z,15.30
2018-11-03T15:51:44.289Z,15.20
2018-11-03T15:54:11.928Z,15.20
2018-11-03T15:56:39.556Z,15.20
2018-11-03T15:59:07.146Z,15.20
2018-11-03T16:01:34.751Z,15.20
2018-11-03T16:04:02.400Z,15.20
2018-11-03T16:06:30.012Z,15.10
2018-11-03T16:08:57.611Z,15.10
2018-11-03T16:11:25.195Z,15.10
2018-11-03T16:13:52.763Z,15.10
2018-11-03T16:16:20.383Z,15.20
2018-11-03T16:18:48.008Z,15.10
2018-11-03T16:21:15.624Z,15.20
2018-11-03T16:23:43.280Z,15.10
2018-11-03T16:26:10.928Z,15.10
2018-11-03T16:28:38.779Z,15.10
2018-11-03T16:31:06.394Z,15.10
2018-11-03T16:33:34.089Z,15.10
2018-11-03T16:36:01.760Z,15.20
2018-11-03T16:38:29.562Z,15.10
2018-11-03T16:40:57.159Z,15.10
2018-11-03T16:43:24.746Z,15.10
2018-11-03T16:45:52.508Z,15.10
2018-11-03T16:48:20.072Z,15.10
2018-11-03T16:50:47.719Z,15.10
2018-11-03T16:53:15.314Z,15.10
2018-11-03T16:55:42.988Z,15.00
2018-11-03T16:58:10.613Z,15.00
2018-11-03T17:00:38.447Z,15.10
2018-11-03T17:03:06.281Z,15.00
2018-11-03T17:05:34.010Z,15.00
2018-11-03T17:08:01.715Z,15.00
2018-11-03T17:10:29.332Z,15.00
2018-11-03T17:12:57.105Z,15.00
2018-11-03T17:15:24.826Z,14.90
2018-11-03T17:17:52.777Z,14.90
2018-11-03T17:20:20.538Z,15.00
2018-11-03T17:22:48.270Z,15.00
2018-11-03T17:25:16.129Z,15.00
2018-11-03T17:27:43.724Z,15.10
2018-11-03T17:30:13.233Z,15.10
2018-11-03T17:32:41.003Z,15.10
2018-11-03T17:35:08.747Z,15.10
2018-11-03T17:37:36.485Z,15.10
2018-11-03T17:40:05.328Z,15.00
2018-11-03T17:42:32.943Z,15.00
2018-11-03T17:45:00.550Z,15.00
2018-11-03T17:47:28.155Z,15.00
2018-11-03T17:49:55.818Z,15.00
2018-11-03T17:52:23.524Z,15.00
2018-11-03T17:54:51.274Z,15.00
2018-11-03T17:57:18.903Z,15.00
2018-11-03T17:59:46.492Z,14.90
2018-11-03T18:02:14.082Z,14.90
2018-11-03T18:04:41.733Z,15.00
2018-11-03T18:07:09.358Z,15.00
2018-11-03T18:09:36.961Z,15.00
2018-11-03T18:12:04.710Z,15.00
2018-11-03T18:14:32.335Z,15.00
2018-11-03T18:16:59.990Z,15.00
2018-11-03T18:19:27.657Z,14.90
2018-11-03T18:21:55.366Z,14.90
2018-11-03T18:24:22.963Z,14.90
2018-11-03T18:26:50.645Z,15.00
2018-11-03T18:29:18.315Z,15.00
2018-11-03T18:31:46.045Z,15.00
2018-11-03T18:34:13.722Z,14.90
2018-11-03T18:36:41.384Z,14.90
2018-11-03T18:39:10.059Z,14.90
2018-11-03T18:41:37.995Z,14.90
2018-11-03T18:44:05.866Z,14.90
2018-11-03T18:46:33.701Z,15.00
2018-11-03T18:49:01.299Z,15.00
2018-11-03T18:51:29.015Z,14.90
2018-11-03T18:53:56.777Z,15.00
2018-11-03T18:56:24.517Z,15.00
2018-11-03T18:58:52.296Z,15.00
2018-11-03T19:01:19.961Z,15.00
2018-11-03T19:03:47.591Z,15.00
2018-11-03T19:06:15.277Z,15.00
2018-11-03T19:08:42.993Z,15.00
2018-11-03T19:11:10.736Z,15.00
2018-11-03T19:13:38.920Z,15.00
2018-11-03T19:16:07.732Z,15.00
2018-11-03T19:18:36.266Z,14.90
2018-11-03T19:21:04.528Z,15.00
2018-11-03T19:23:32.695Z,14.90
2018-11-03T19:26:00.773Z,14.90
2018-11-03T19:28:28.928Z,15.00
2018-11-03T19:30:56.951Z,15.00
2018-11-03T19:33:25.510Z,15.00
2018-11-03T19:35:53.565Z,14.90
2018-11-03T19:38:21.532Z,14.70
2018-11-03T19:40:49.668Z,14.80
2018-11-03T19:43:17.597Z,14.70
2018-11-03T19:45:45.610Z,14.80
2018-11-03T19:48:13.856Z,14.90
2018-11-03T19:50:41.926Z,14.90
2018-11-03T19:53:09.837Z,14.90
2018-11-03T19:55:37.893Z,14.90
2018-11-03T19:58:05.853Z,14.90
2018-11-03T20:00:33.705Z,14.90
2018-11-03T20:03:01.513Z,14.90
2018-11-03T20:05:29.059Z,14.90
2018-11-03T20:07:56.699Z,14.90
2018-11-03T20:10:24.351Z,14.90
2018-11-03T20:12:52.045Z,14.90
2018-11-03T20:15:19.777Z,14.90
2018-11-03T20:17:47.717Z,14.90
2018-11-03T20:20:15.365Z,14.90
2018-11-03T20:22:43.170Z,14.90
2018-11-03T20:25:11.747Z,14.90
2018-11-03T20:27:39.552Z,14.90
2018-11-03T20:30:09.541Z,14.90
2018-11-03T20:32:37.248Z,14.90
2018-11-03T20:35:05.467Z,14.90
2018-11-03T20:37:33.148Z,14.90
2018-11-03T20:40:00.833Z,14.90
2018-11-03T20:42:28.552Z,14.90
2018-11-03T20:44:57.082Z,14.90
2018-11-03T20:47:24.748Z,14.90
2018-11-03T20:49:52.972Z,14.90
2018-11-03T20:52:20.707Z,14.90
2018-11-03T20:54:48.414Z,14.90
2018-11-03T20:57:16.158Z,14.90
2018-11-03T20:59:43.997Z,14.90
2018-11-03T21:02:18.601Z,14.90
2018-11-03T21:04:46.379Z,14.80
2018-11-03T21:07:14.070Z,14.80
2018-11-03T21:09:42.105Z,14.90
2018-11-03T21:12:10.019Z,14.90
2018-11-03T21:14:37.736Z,14.90
2018-11-03T21:17:05.612Z,14.90
2018-11-03T21:19:33.272Z,14.90
2018-11-03T21:22:01.073Z,14.90
2018-11-03T21:24:28.840Z,14.90
2018-11-03T21:26:56.911Z,14.90
2018-11-03T21:29:24.706Z,14.90
2018-11-03T21:31:52.263Z,14.90
2018-11-03T21:34:19.964Z,14.90
2018-11-03T21:36:47.596Z,14.90
2018-11-03T21:39:15.252Z,14.90
2018-11-03T21:41:42.957Z,14.90
2018-11-03T21:44:10.614Z,14.90
2018-11-03T21:46:38.423Z,14.80
2018-11-03T21:49:06.046Z,14.80
2018-11-03T21:51:33.700Z,14.80
2018-11-03T21:54:01.492Z,14.80
2018-11-03T21:56:29.141Z,14.80
2018-11-03T21:58:56.855Z,14.80
2018-11-03T22:01:24.563Z,14.70
2018-11-03T22:03:52.184Z,14.70
2018-11-03T22:06:19.986Z,14.60
2018-11-03T22:08:47.578Z,14.50
2018-11-03T22:11:15.211Z,14.40
2018-11-03T22:13:42.977Z,14.30
2018-11-03T22:16:10.656Z,14.30
2018-11-03T22:18:38.273Z,14.20
2018-11-03T22:21:05.908Z,14.30
2018-11-03T22:23:33.483Z,14.40
2018-11-03T22:26:01.122Z,14.40
2018-11-03T22:28:28.759Z,14.40
2018-11-03T22:30:56.413Z,14.40
2018-11-03T22:33:24.030Z,14.30
2018-11-03T22:35:51.854Z,14.20
2018-11-03T22:38:19.551Z,14.30
2018-11-03T22:40:47.195Z,14.20
2018-11-03T22:43:14.880Z,14.10
2018-11-03T22:45:42.505Z,14.20
2018-11-03T22:48:10.115Z,14.30
2018-11-03T22:50:37.729Z,14.40
2018-11-03T22:53:05.377Z,14.50
2018-11-03T22:55:33.042Z,14.40
2018-11-03T22:58:00.667Z,14.50
2018-11-03T23:00:28.419Z,14.50
2018-11-03T23:02:56.009Z,14.60
2018-11-03T23:05:23.691Z,14.70
2018-11-03T23:07:51.422Z,14.70
2018-11-03T23:10:18.986Z,14.70
2018-11-03T23:12:46.637Z,14.80
2018-11-03T23:15:14.189Z,14.80
2018-11-03T23:17:41.785Z,14.80
2018-11-03T23:20:11.752Z,14.70
2018-11-03T23:22:39.525Z,14.70
2018-11-03T23:25:07.798Z,14.70
2018-11-03T23:27:35.488Z,14.70
2018-11-03T23:30:04.021Z,14.70
2018-11-03T23:32:31.384Z,14.60
2018-11-03T23:34:58.971Z,14.60
2018-11-03T23:37:26.552Z,14.60
2018-11-03T23:39:54.171Z,14.60
2018-11-03T23:42:21.732Z,14.60
2018-11-03T23:44:49.453Z,14.60
2018-11-03T23:47:17.002Z,14.60
2018-11-03T23:49:44.555Z,14.60
2018-11-03T23:52:12.221Z,14.60
2018-11-03T23:54:39.785Z,14.70
2018-11-03T23:57:07.426Z,14.70
2018-11-03T23:59:35.040Z,14.70
